Tafi Viejo, Argentina
Current Conditions -  °F | °C
As of 11:00 AM on Thursday 23 Oct 2014 (Local Time) from SANT Reporting Station
Clear Clear  
Wind Chill: 32°   Ceiling: Unl
Heat Index: 32°   Visibility: 4mi
Dew Point: 17°   Wind: 7mph
Humidity: 40%   Direction: 90°E
Pressure: 29.97"   Gusts: NA
Location:  26.73°S, 65.27°W
Report Text: SANT 231400Z 09006KT 7000 NSC 32/17 Q1015
Loading
Personal Weather Stations






























Interactive Weather Map
Tropical Storm Tracking
New forecast layout! Learn more

10-Day Weather Forecast

Advertisements
Track Severe Weather on mobile